sensor_id;sensor_type;location;lat;lon;timestamp;P1;durP1;ratioP1;P2;durP2;ratioP2
73852;SDS011;62191;51.548;5.688;2022-11-12T00:02:01;59.33;;;34.20;;
73852;SDS011;62191;51.548;5.688;2022-11-12T00:04:34;51.30;;;30.13;;
73852;SDS011;62191;51.548;5.688;2022-11-12T00:07:03;54.90;;;31.20;;
73852;SDS011;62191;51.548;5.688;2022-11-12T00:09:41;49.60;;;29.87;;
73852;SDS011;62191;51.548;5.688;2022-11-12T00:12:11;43.97;;;28.63;;
73852;SDS011;62191;51.548;5.688;2022-11-12T00:14:42;54.53;;;31.27;;
73852;SDS011;62191;51.548;5.688;2022-11-12T00:17:15;50.77;;;29.80;;
73852;SDS011;62191;51.548;5.688;2022-11-12T00:19:45;47.00;;;28.97;;
73852;SDS011;62191;51.548;5.688;2022-11-12T00:22:20;42.97;;;27.37;;
73852;SDS011;62191;51.548;5.688;2022-11-12T00:24:50;48.47;;;29.00;;
73852;SDS011;62191;51.548;5.688;2022-11-12T00:27:18;47.57;;;29.97;;
73852;SDS011;62191;51.548;5.688;2022-11-12T00:29:45;48.40;;;29.50;;
73852;SDS011;62191;51.548;5.688;2022-11-12T00:32:18;51.13;;;30.77;;
73852;SDS011;62191;51.548;5.688;2022-11-12T00:34:48;57.77;;;33.90;;
73852;SDS011;62191;51.548;5.688;2022-11-12T00:37:19;52.30;;;32.47;;
73852;SDS011;62191;51.548;5.688;2022-11-12T00:39:49;51.20;;;31.27;;
73852;SDS011;62191;51.548;5.688;2022-11-12T00:42:22;57.07;;;33.77;;
73852;SDS011;62191;51.548;5.688;2022-11-12T00:44:51;64.20;;;35.87;;
73852;SDS011;62191;51.548;5.688;2022-11-12T00:47:20;69.00;;;37.80;;
73852;SDS011;62191;51.548;5.688;2022-11-12T00:49:52;66.87;;;36.83;;
73852;SDS011;62191;51.548;5.688;2022-11-12T00:52:22;67.83;;;37.57;;
73852;SDS011;62191;51.548;5.688;2022-11-12T00:54:51;63.20;;;35.17;;
73852;SDS011;62191;51.548;5.688;2022-11-12T00:57:20;69.13;;;37.93;;
73852;SDS011;62191;51.548;5.688;2022-11-12T00:59:52;58.90;;;34.10;;
73852;SDS011;62191;51.548;5.688;2022-11-12T01:02:21;68.33;;;40.07;;
73852;SDS011;62191;51.548;5.688;2022-11-12T01:04:48;75.83;;;39.07;;
73852;SDS011;62191;51.548;5.688;2022-11-12T01:07:17;63.90;;;37.83;;
73852;SDS011;62191;51.548;5.688;2022-11-12T01:09:47;67.67;;;37.30;;
73852;SDS011;62191;51.548;5.688;2022-11-12T01:12:15;70.13;;;37.13;;
73852;SDS011;62191;51.548;5.688;2022-11-12T01:14:43;74.60;;;38.67;;
73852;SDS011;62191;51.548;5.688;2022-11-12T01:17:13;68.20;;;37.40;;
73852;SDS011;62191;51.548;5.688;2022-11-12T01:19:42;66.63;;;37.17;;
73852;SDS011;62191;51.548;5.688;2022-11-12T01:22:14;78.13;;;40.20;;
73852;SDS011;62191;51.548;5.688;2022-11-12T01:24:44;66.33;;;39.50;;
73852;SDS011;62191;51.548;5.688;2022-11-12T01:27:11;69.23;;;39.63;;
73852;SDS011;62191;51.548;5.688;2022-11-12T01:29:41;70.23;;;38.93;;
73852;SDS011;62191;51.548;5.688;2022-11-12T01:32:11;66.20;;;38.80;;
73852;SDS011;62191;51.548;5.688;2022-11-12T01:34:41;71.13;;;37.63;;
73852;SDS011;62191;51.548;5.688;2022-11-12T01:37:10;79.80;;;41.87;;
73852;SDS011;62191;51.548;5.688;2022-11-12T01:39:39;77.47;;;41.10;;
73852;SDS011;62191;51.548;5.688;2022-11-12T01:42:10;73.60;;;39.87;;
73852;SDS011;62191;51.548;5.688;2022-11-12T01:44:40;80.40;;;40.97;;
73852;SDS011;62191;51.548;5.688;2022-11-12T01:47:30;74.70;;;40.90;;
73852;SDS011;62191;51.548;5.688;2022-11-12T01:50:04;65.50;;;36.13;;
73852;SDS011;62191;51.548;5.688;2022-11-12T01:52:30;75.00;;;39.93;;
73852;SDS011;62191;51.548;5.688;2022-11-12T01:55:13;82.40;;;40.47;;
73852;SDS011;62191;51.548;5.688;2022-11-12T01:57:44;74.90;;;38.47;;
73852;SDS011;62191;51.548;5.688;2022-11-12T02:00:18;78.30;;;40.85;;
73852;SDS011;62191;51.548;5.688;2022-11-12T02:02:51;70.23;;;36.77;;
73852;SDS011;62191;51.548;5.688;2022-11-12T02:05:22;72.40;;;38.87;;
73852;SDS011;62191;51.548;5.688;2022-11-12T02:07:52;72.43;;;37.87;;
73852;SDS011;62191;51.548;5.688;2022-11-12T02:10:22;71.70;;;39.33;;
73852;SDS011;62191;51.548;5.688;2022-11-12T02:12:53;68.43;;;36.50;;
73852;SDS011;62191;51.548;5.688;2022-11-12T02:15:42;73.60;;;39.13;;
73852;SDS011;62191;51.548;5.688;2022-11-12T02:18:13;75.77;;;39.13;;
73852;SDS011;62191;51.548;5.688;2022-11-12T02:20:40;69.90;;;38.93;;
73852;SDS011;62191;51.548;5.688;2022-11-12T02:23:10;62.23;;;35.20;;
73852;SDS011;62191;51.548;5.688;2022-11-12T02:25:40;64.73;;;36.33;;
73852;SDS011;62191;51.548;5.688;2022-11-12T02:28:07;61.73;;;34.50;;
73852;SDS011;62191;51.548;5.688;2022-11-12T02:30:39;57.87;;;32.13;;
73852;SDS011;62191;51.548;5.688;2022-11-12T02:33:07;60.70;;;33.97;;
73852;SDS011;62191;51.548;5.688;2022-11-12T02:35:38;60.43;;;34.23;;
73852;SDS011;62191;51.548;5.688;2022-11-12T02:38:07;56.50;;;33.63;;
73852;SDS011;62191;51.548;5.688;2022-11-12T02:40:36;62.77;;;35.20;;
73852;SDS011;62191;51.548;5.688;2022-11-12T02:43:05;66.30;;;37.23;;
73852;SDS011;62191;51.548;5.688;2022-11-12T02:45:36;70.43;;;38.37;;
73852;SDS011;62191;51.548;5.688;2022-11-12T02:48:03;79.03;;;42.10;;
73852;SDS011;62191;51.548;5.688;2022-11-12T02:50:31;74.70;;;41.43;;
73852;SDS011;62191;51.548;5.688;2022-11-12T02:53:02;82.57;;;43.97;;
73852;SDS011;62191;51.548;5.688;2022-11-12T02:55:34;71.57;;;39.07;;
73852;SDS011;62191;51.548;5.688;2022-11-12T02:58:04;60.83;;;37.47;;
73852;SDS011;62191;51.548;5.688;2022-11-12T03:00:37;71.13;;;39.87;;
73852;SDS011;62191;51.548;5.688;2022-11-12T03:03:06;66.70;;;37.53;;
73852;SDS011;62191;51.548;5.688;2022-11-12T03:05:35;71.23;;;40.53;;
73852;SDS011;62191;51.548;5.688;2022-11-12T03:08:03;69.73;;;39.60;;
73852;SDS011;62191;51.548;5.688;2022-11-12T03:10:32;71.17;;;39.23;;
73852;SDS011;62191;51.548;5.688;2022-11-12T03:13:00;59.67;;;34.40;;
73852;SDS011;62191;51.548;5.688;2022-11-12T03:15:28;56.83;;;34.47;;
73852;SDS011;62191;51.548;5.688;2022-11-12T03:17:56;68.70;;;38.70;;
73852;SDS011;62191;51.548;5.688;2022-11-12T03:20:24;57.13;;;33.50;;
73852;SDS011;62191;51.548;5.688;2022-11-12T03:23:03;62.53;;;35.10;;
73852;SDS011;62191;51.548;5.688;2022-11-12T03:25:27;59.60;;;33.53;;
73852;SDS011;62191;51.548;5.688;2022-11-12T03:27:57;54.57;;;30.53;;
73852;SDS011;62191;51.548;5.688;2022-11-12T03:30:26;60.03;;;34.13;;
73852;SDS011;62191;51.548;5.688;2022-11-12T03:32:55;59.70;;;33.40;;
73852;SDS011;62191;51.548;5.688;2022-11-12T03:35:22;60.90;;;32.90;;
73852;SDS011;62191;51.548;5.688;2022-11-12T03:37:49;57.87;;;34.27;;
73852;SDS011;62191;51.548;5.688;2022-11-12T03:40:17;65.53;;;35.40;;
73852;SDS011;62191;51.548;5.688;2022-11-12T03:42:45;75.03;;;38.97;;
73852;SDS011;62191;51.548;5.688;2022-11-12T03:45:15;60.43;;;36.13;;
73852;SDS011;62191;51.548;5.688;2022-11-12T03:47:43;68.90;;;38.47;;
73852;SDS011;62191;51.548;5.688;2022-11-12T03:50:13;75.30;;;39.40;;
73852;SDS011;62191;51.548;5.688;2022-11-12T03:52:50;65.33;;;35.83;;
73852;SDS011;62191;51.548;5.688;2022-11-12T03:55:14;69.90;;;38.37;;
73852;SDS011;62191;51.548;5.688;2022-11-12T03:57:43;80.63;;;40.73;;
73852;SDS011;62191;51.548;5.688;2022-11-12T04:00:12;70.53;;;39.13;;
73852;SDS011;62191;51.548;5.688;2022-11-12T04:02:41;77.10;;;39.90;;
73852;SDS011;62191;51.548;5.688;2022-11-12T04:05:08;82.57;;;40.53;;
73852;SDS011;62191;51.548;5.688;2022-11-12T04:08:01;84.00;;;42.17;;
73852;SDS011;62191;51.548;5.688;2022-11-12T04:10:50;68.60;;;35.47;;
73852;SDS011;62191;51.548;5.688;2022-11-12T04:13:18;72.13;;;36.80;;
73852;SDS011;62191;51.548;5.688;2022-11-12T04:18:45;83.43;;;38.63;;
73852;SDS011;62191;51.548;5.688;2022-11-12T04:21:37;74.03;;;39.77;;
73852;SDS011;62191;51.548;5.688;2022-11-12T04:24:17;86.12;;;38.65;;
73852;SDS011;62191;51.548;5.688;2022-11-12T04:27:04;85.23;;;39.07;;
73852;SDS011;62191;51.548;5.688;2022-11-12T04:29:32;90.53;;;41.87;;
73852;SDS011;62191;51.548;5.688;2022-11-12T04:32:18;79.27;;;38.77;;
73852;SDS011;62191;51.548;5.688;2022-11-12T04:34:45;74.00;;;38.67;;
73852;SDS011;62191;51.548;5.688;2022-11-12T04:37:13;89.20;;;41.07;;
73852;SDS011;62191;51.548;5.688;2022-11-12T04:39:40;83.73;;;42.00;;
73852;SDS011;62191;51.548;5.688;2022-11-12T04:42:08;79.80;;;39.73;;
73852;SDS011;62191;51.548;5.688;2022-11-12T04:44:54;79.70;;;38.40;;
73852;SDS011;62191;51.548;5.688;2022-11-12T04:47:31;71.67;;;37.33;;
73852;SDS011;62191;51.548;5.688;2022-11-12T04:50:01;70.03;;;36.37;;
73852;SDS011;62191;51.548;5.688;2022-11-12T04:52:30;74.83;;;38.33;;
73852;SDS011;62191;51.548;5.688;2022-11-12T04:54:57;83.23;;;41.33;;
73852;SDS011;62191;51.548;5.688;2022-11-12T04:57:25;80.87;;;39.60;;
73852;SDS011;62191;51.548;5.688;2022-11-12T04:59:52;81.67;;;39.53;;
73852;SDS011;62191;51.548;5.688;2022-11-12T05:02:19;75.27;;;37.83;;
73852;SDS011;62191;51.548;5.688;2022-11-12T05:04:47;74.43;;;37.20;;
73852;SDS011;62191;51.548;5.688;2022-11-12T05:07:14;74.50;;;36.73;;
73852;SDS011;62191;51.548;5.688;2022-11-12T05:09:42;68.33;;;37.57;;
73852;SDS011;62191;51.548;5.688;2022-11-12T05:12:10;68.23;;;35.53;;
73852;SDS011;62191;51.548;5.688;2022-11-12T05:14:37;74.07;;;37.27;;
73852;SDS011;62191;51.548;5.688;2022-11-12T05:17:04;76.23;;;36.17;;
73852;SDS011;62191;51.548;5.688;2022-11-12T05:19:32;71.63;;;36.50;;
73852;SDS011;62191;51.548;5.688;2022-11-12T05:21:59;64.23;;;34.83;;
73852;SDS011;62191;51.548;5.688;2022-11-12T05:24:35;66.27;;;34.03;;
73852;SDS011;62191;51.548;5.688;2022-11-12T05:26:59;66.70;;;34.27;;
73852;SDS011;62191;51.548;5.688;2022-11-12T05:29:27;60.27;;;32.00;;
73852;SDS011;62191;51.548;5.688;2022-11-12T05:31:54;70.80;;;35.77;;
73852;SDS011;62191;51.548;5.688;2022-11-12T05:34:22;78.27;;;38.07;;
73852;SDS011;62191;51.548;5.688;2022-11-12T05:36:50;66.60;;;35.73;;
73852;SDS011;62191;51.548;5.688;2022-11-12T05:39:17;68.57;;;35.23;;
73852;SDS011;62191;51.548;5.688;2022-11-12T05:41:44;70.90;;;37.23;;
73852;SDS011;62191;51.548;5.688;2022-11-12T05:44:12;77.87;;;38.87;;
73852;SDS011;62191;51.548;5.688;2022-11-12T05:46:39;80.57;;;39.80;;
73852;SDS011;62191;51.548;5.688;2022-11-12T05:49:06;72.83;;;35.13;;
73852;SDS011;62191;51.548;5.688;2022-11-12T05:51:33;74.93;;;36.67;;
73852;SDS011;62191;51.548;5.688;2022-11-12T05:54:01;64.40;;;33.30;;
73852;SDS011;62191;51.548;5.688;2022-11-12T05:56:29;71.30;;;36.43;;
73852;SDS011;62191;51.548;5.688;2022-11-12T05:58:56;74.80;;;36.80;;
73852;SDS011;62191;51.548;5.688;2022-11-12T06:01:24;64.80;;;33.10;;
73852;SDS011;62191;51.548;5.688;2022-11-12T06:03:51;73.53;;;34.67;;
73852;SDS011;62191;51.548;5.688;2022-11-12T06:06:18;71.83;;;35.43;;
73852;SDS011;62191;51.548;5.688;2022-11-12T06:08:45;73.77;;;36.43;;
73852;SDS011;62191;51.548;5.688;2022-11-12T06:11:14;79.77;;;36.27;;
73852;SDS011;62191;51.548;5.688;2022-11-12T06:13:42;78.70;;;37.57;;
73852;SDS011;62191;51.548;5.688;2022-11-12T06:16:09;76.40;;;36.43;;
73852;SDS011;62191;51.548;5.688;2022-11-12T06:18:36;80.20;;;37.87;;
73852;SDS011;62191;51.548;5.688;2022-11-12T06:21:04;84.37;;;37.53;;
73852;SDS011;62191;51.548;5.688;2022-11-12T06:23:57;78.07;;;36.10;;
73852;SDS011;62191;51.548;5.688;2022-11-12T06:26:25;75.37;;;36.70;;
73852;SDS011;62191;51.548;5.688;2022-11-12T06:28:55;71.50;;;35.90;;
73852;SDS011;62191;51.548;5.688;2022-11-12T06:31:22;84.80;;;37.90;;
73852;SDS011;62191;51.548;5.688;2022-11-12T06:33:49;88.10;;;38.57;;
73852;SDS011;62191;51.548;5.688;2022-11-12T06:36:17;74.13;;;37.40;;
73852;SDS011;62191;51.548;5.688;2022-11-12T06:38:45;76.03;;;37.23;;
73852;SDS011;62191;51.548;5.688;2022-11-12T06:41:13;84.27;;;39.13;;
73852;SDS011;62191;51.548;5.688;2022-11-12T06:43:40;79.67;;;36.73;;
73852;SDS011;62191;51.548;5.688;2022-11-12T06:46:12;79.03;;;36.80;;
73852;SDS011;62191;51.548;5.688;2022-11-12T06:48:41;81.17;;;37.70;;
73852;SDS011;62191;51.548;5.688;2022-11-12T06:51:15;80.80;;;39.60;;
73852;SDS011;62191;51.548;5.688;2022-11-12T06:53:39;79.87;;;40.00;;
73852;SDS011;62191;51.548;5.688;2022-11-12T06:56:07;83.80;;;38.53;;
73852;SDS011;62191;51.548;5.688;2022-11-12T06:58:34;83.20;;;37.97;;
73852;SDS011;62191;51.548;5.688;2022-11-12T07:01:15;80.63;;;38.63;;
73852;SDS011;62191;51.548;5.688;2022-11-12T07:03:43;74.73;;;35.80;;
73852;SDS011;62191;51.548;5.688;2022-11-12T07:06:11;77.17;;;36.93;;
73852;SDS011;62191;51.548;5.688;2022-11-12T07:08:42;91.20;;;40.47;;
73852;SDS011;62191;51.548;5.688;2022-11-12T07:11:09;72.07;;;35.00;;
73852;SDS011;62191;51.548;5.688;2022-11-12T07:13:36;75.90;;;35.27;;
73852;SDS011;62191;51.548;5.688;2022-11-12T07:16:05;73.30;;;36.67;;
73852;SDS011;62191;51.548;5.688;2022-11-12T07:18:33;72.07;;;36.97;;
73852;SDS011;62191;51.548;5.688;2022-11-12T07:21:02;72.40;;;37.47;;
73852;SDS011;62191;51.548;5.688;2022-11-12T07:23:34;73.93;;;36.47;;
73852;SDS011;62191;51.548;5.688;2022-11-12T07:26:05;70.77;;;34.53;;
73852;SDS011;62191;51.548;5.688;2022-11-12T07:28:34;67.93;;;34.77;;
73852;SDS011;62191;51.548;5.688;2022-11-12T07:31:03;77.50;;;39.80;;
73852;SDS011;62191;51.548;5.688;2022-11-12T07:33:32;85.97;;;40.00;;
73852;SDS011;62191;51.548;5.688;2022-11-12T07:36:01;73.90;;;36.90;;
73852;SDS011;62191;51.548;5.688;2022-11-12T07:38:29;78.00;;;39.53;;
73852;SDS011;62191;51.548;5.688;2022-11-12T07:41:01;79.03;;;39.27;;
73852;SDS011;62191;51.548;5.688;2022-11-12T07:43:30;85.03;;;40.97;;
73852;SDS011;62191;51.548;5.688;2022-11-12T07:46:04;83.43;;;39.90;;
73852;SDS011;62191;51.548;5.688;2022-11-12T07:48:29;82.43;;;40.27;;
73852;SDS011;62191;51.548;5.688;2022-11-12T07:51:00;79.60;;;39.97;;
73852;SDS011;62191;51.548;5.688;2022-11-12T07:53:35;82.97;;;41.23;;
73852;SDS011;62191;51.548;5.688;2022-11-12T07:56:02;103.17;;;47.77;;
73852;SDS011;62191;51.548;5.688;2022-11-12T07:58:30;99.93;;;45.73;;
73852;SDS011;62191;51.548;5.688;2022-11-12T08:01:09;91.60;;;43.50;;
73852;SDS011;62191;51.548;5.688;2022-11-12T08:03:37;85.53;;;43.07;;
73852;SDS011;62191;51.548;5.688;2022-11-12T08:06:04;93.70;;;45.30;;
73852;SDS011;62191;51.548;5.688;2022-11-12T08:08:32;97.43;;;45.33;;
73852;SDS011;62191;51.548;5.688;2022-11-12T08:10:59;90.77;;;44.97;;
73852;SDS011;62191;51.548;5.688;2022-11-12T08:13:26;86.93;;;42.33;;
73852;SDS011;62191;51.548;5.688;2022-11-12T08:15:55;105.03;;;48.53;;
73852;SDS011;62191;51.548;5.688;2022-11-12T08:18:23;97.00;;;49.10;;
73852;SDS011;62191;51.548;5.688;2022-11-12T08:20:51;90.63;;;45.97;;
73852;SDS011;62191;51.548;5.688;2022-11-12T08:23:27;85.53;;;45.60;;
73852;SDS011;62191;51.548;5.688;2022-11-12T08:25:57;96.97;;;51.27;;
73852;SDS011;62191;51.548;5.688;2022-11-12T08:28:27;106.23;;;50.70;;
73852;SDS011;62191;51.548;5.688;2022-11-12T08:30:55;95.57;;;50.30;;
73852;SDS011;62191;51.548;5.688;2022-11-12T08:33:23;89.47;;;50.00;;
73852;SDS011;62191;51.548;5.688;2022-11-12T08:35:51;107.13;;;57.80;;
73852;SDS011;62191;51.548;5.688;2022-11-12T08:38:18;122.60;;;62.53;;
73852;SDS011;62191;51.548;5.688;2022-11-12T08:40:48;105.57;;;57.17;;
73852;SDS011;62191;51.548;5.688;2022-11-12T08:43:15;96.73;;;54.20;;
73852;SDS011;62191;51.548;5.688;2022-11-12T08:45:43;106.53;;;60.03;;
73852;SDS011;62191;51.548;5.688;2022-11-12T08:48:11;111.60;;;63.03;;
73852;SDS011;62191;51.548;5.688;2022-11-12T08:50:39;102.27;;;59.57;;
73852;SDS011;62191;51.548;5.688;2022-11-12T08:53:07;123.80;;;66.63;;
73852;SDS011;62191;51.548;5.688;2022-11-12T08:55:36;118.77;;;68.50;;
73852;SDS011;62191;51.548;5.688;2022-11-12T08:58:04;113.67;;;65.73;;
73852;SDS011;62191;51.548;5.688;2022-11-12T09:00:33;106.30;;;64.23;;
73852;SDS011;62191;51.548;5.688;2022-11-12T09:03:03;114.43;;;67.37;;
73852;SDS011;62191;51.548;5.688;2022-11-12T09:05:36;115.73;;;69.07;;
73852;SDS011;62191;51.548;5.688;2022-11-12T09:08:05;122.30;;;74.13;;
73852;SDS011;62191;51.548;5.688;2022-11-12T09:10:33;109.87;;;67.63;;
73852;SDS011;62191;51.548;5.688;2022-11-12T09:13:02;111.07;;;67.17;;
73852;SDS011;62191;51.548;5.688;2022-11-12T09:15:30;114.03;;;68.23;;
73852;SDS011;62191;51.548;5.688;2022-11-12T09:17:58;89.27;;;58.27;;
73852;SDS011;62191;51.548;5.688;2022-11-12T09:20:27;70.97;;;48.50;;
73852;SDS011;62191;51.548;5.688;2022-11-12T09:22:58;84.93;;;54.33;;
73852;SDS011;62191;51.548;5.688;2022-11-12T09:25:30;75.23;;;48.40;;
73852;SDS011;62191;51.548;5.688;2022-11-12T09:28:03;66.43;;;44.50;;
73852;SDS011;62191;51.548;5.688;2022-11-12T09:30:33;51.30;;;36.63;;
73852;SDS011;62191;51.548;5.688;2022-11-12T09:33:01;46.70;;;32.50;;
73852;SDS011;62191;51.548;5.688;2022-11-12T09:35:29;49.23;;;34.47;;
73852;SDS011;62191;51.548;5.688;2022-11-12T09:37:57;42.07;;;29.37;;
73852;SDS011;62191;51.548;5.688;2022-11-12T09:40:29;59.70;;;40.90;;
73852;SDS011;62191;51.548;5.688;2022-11-12T09:43:16;46.83;;;34.20;;
73852;SDS011;62191;51.548;5.688;2022-11-12T09:45:48;36.67;;;27.77;;
73852;SDS011;62191;51.548;5.688;2022-11-12T09:48:22;28.77;;;19.43;;
73852;SDS011;62191;51.548;5.688;2022-11-12T09:51:04;30.00;;;21.67;;
73852;SDS011;62191;51.548;5.688;2022-11-12T09:53:34;20.93;;;16.60;;
73852;SDS011;62191;51.548;5.688;2022-11-12T09:56:04;28.67;;;19.87;;
73852;SDS011;62191;51.548;5.688;2022-11-12T09:58:32;28.03;;;20.60;;
73852;SDS011;62191;51.548;5.688;2022-11-12T10:01:37;24.37;;;18.83;;
73852;SDS011;62191;51.548;5.688;2022-11-12T10:03:51;21.07;;;18.10;;
73852;SDS011;62191;51.548;5.688;2022-11-12T10:06:21;22.67;;;15.40;;
73852;SDS011;62191;51.548;5.688;2022-11-12T10:08:56;23.67;;;17.00;;
73852;SDS011;62191;51.548;5.688;2022-11-12T10:11:34;24.47;;;19.10;;
73852;SDS011;62191;51.548;5.688;2022-11-12T10:14:37;23.03;;;17.27;;
73852;SDS011;62191;51.548;5.688;2022-11-12T10:17:07;17.07;;;13.40;;
73852;SDS011;62191;51.548;5.688;2022-11-12T10:19:38;18.97;;;14.77;;
73852;SDS011;62191;51.548;5.688;2022-11-12T10:22:20;19.27;;;14.43;;
73852;SDS011;62191;51.548;5.688;2022-11-12T10:24:53;16.70;;;13.00;;
73852;SDS011;62191;51.548;5.688;2022-11-12T10:27:22;19.07;;;12.20;;
73852;SDS011;62191;51.548;5.688;2022-11-12T10:29:59;15.63;;;13.30;;
73852;SDS011;62191;51.548;5.688;2022-11-12T10:32:30;18.43;;;13.53;;
73852;SDS011;62191;51.548;5.688;2022-11-12T10:34:57;18.37;;;14.38;;
73852;SDS011;62191;51.548;5.688;2022-11-12T10:37:28;16.40;;;12.20;;
73852;SDS011;62191;51.548;5.688;2022-11-12T10:42:56;17.37;;;12.30;;
73852;SDS011;62191;51.548;5.688;2022-11-12T10:45:25;17.73;;;13.15;;
73852;SDS011;62191;51.548;5.688;2022-11-12T10:47:53;15.80;;;12.30;;
73852;SDS011;62191;51.548;5.688;2022-11-12T10:50:27;15.78;;;13.75;;
73852;SDS011;62191;51.548;5.688;2022-11-12T10:53:04;14.85;;;13.13;;
73852;SDS011;62191;51.548;5.688;2022-11-12T10:55:36;16.85;;;10.90;;
73852;SDS011;62191;51.548;5.688;2022-11-12T10:58:13;15.80;;;12.00;;
73852;SDS011;62191;51.548;5.688;2022-11-12T11:00:53;15.85;;;12.73;;
73852;SDS011;62191;51.548;5.688;2022-11-12T11:03:35;18.07;;;12.30;;
73852;SDS011;62191;51.548;5.688;2022-11-12T11:08:48;14.30;;;12.58;;
73852;SDS011;62191;51.548;5.688;2022-11-12T11:11:30;19.07;;;14.38;;
73852;SDS011;62191;51.548;5.688;2022-11-12T11:13:56;20.37;;;15.50;;
73852;SDS011;62191;51.548;5.688;2022-11-12T11:16:26;21.65;;;17.02;;
73852;SDS011;62191;51.548;5.688;2022-11-12T11:19:03;18.67;;;16.60;;
73852;SDS011;62191;51.548;5.688;2022-11-12T11:21:39;28.25;;;16.82;;
73852;SDS011;62191;51.548;5.688;2022-11-12T11:26:57;16.77;;;14.85;;
73852;SDS011;62191;51.548;5.688;2022-11-12T11:40:35;16.50;;;11.00;;
73852;SDS011;62191;51.548;5.688;2022-11-12T11:45:54;14.33;;;9.70;;
73852;SDS011;62191;51.548;5.688;2022-11-12T11:48:29;14.87;;;11.40;;
73852;SDS011;62191;51.548;5.688;2022-11-12T11:51:11;13.38;;;10.00;;
73852;SDS011;62191;51.548;5.688;2022-11-12T11:56:40;17.98;;;11.43;;
73852;SDS011;62191;51.548;5.688;2022-11-12T12:04:44;16.60;;;12.00;;
73852;SDS011;62191;51.548;5.688;2022-11-12T12:07:33;14.10;;;11.05;;
73852;SDS011;62191;51.548;5.688;2022-11-12T12:12:57;16.90;;;12.78;;
73852;SDS011;62191;51.548;5.688;2022-11-12T12:21:01;15.45;;;11.22;;
73852;SDS011;62191;51.548;5.688;2022-11-12T12:23:33;14.98;;;11.05;;
73852;SDS011;62191;51.548;5.688;2022-11-12T12:26:05;17.42;;;13.05;;
73852;SDS011;62191;51.548;5.688;2022-11-12T12:28:49;18.90;;;13.20;;
73852;SDS011;62191;51.548;5.688;2022-11-12T12:31:23;18.67;;;12.98;;
73852;SDS011;62191;51.548;5.688;2022-11-12T12:33:56;18.50;;;13.65;;
73852;SDS011;62191;51.548;5.688;2022-11-12T12:36:31;19.40;;;13.93;;
73852;SDS011;62191;51.548;5.688;2022-11-12T12:39:19;16.07;;;12.53;;
73852;SDS011;62191;51.548;5.688;2022-11-12T12:41:53;18.32;;;13.13;;
73852;SDS011;62191;51.548;5.688;2022-11-12T12:44:42;19.42;;;12.55;;
73852;SDS011;62191;51.548;5.688;2022-11-12T12:47:27;19.92;;;12.85;;
73852;SDS011;62191;51.548;5.688;2022-11-12T12:49:54;18.95;;;13.30;;
73852;SDS011;62191;51.548;5.688;2022-11-12T12:52:23;16.07;;;12.25;;
73852;SDS011;62191;51.548;5.688;2022-11-12T12:57:36;15.48;;;11.43;;
73852;SDS011;62191;51.548;5.688;2022-11-12T13:00:23;18.07;;;12.07;;
73852;SDS011;62191;51.548;5.688;2022-11-12T13:02:58;16.93;;;13.28;;
73852;SDS011;62191;51.548;5.688;2022-11-12T13:05:29;18.12;;;13.13;;
73852;SDS011;62191;51.548;5.688;2022-11-12T13:08:02;17.85;;;11.95;;
73852;SDS011;62191;51.548;5.688;2022-11-12T13:15:46;15.13;;;10.43;;
73852;SDS011;62191;51.548;5.688;2022-11-12T13:21:09;17.85;;;11.97;;
73852;SDS011;62191;51.548;5.688;2022-11-12T13:23:52;16.80;;;11.90;;
73852;SDS011;62191;51.548;5.688;2022-11-12T13:26:49;14.80;;;11.78;;
73852;SDS011;62191;51.548;5.688;2022-11-12T13:29:17;18.52;;;12.05;;
73852;SDS011;62191;51.548;5.688;2022-11-12T13:34:48;14.47;;;11.85;;
73852;SDS011;62191;51.548;5.688;2022-11-12T13:37:17;15.95;;;11.68;;
73852;SDS011;62191;51.548;5.688;2022-11-12T13:39:45;14.05;;;11.33;;
73852;SDS011;62191;51.548;5.688;2022-11-12T13:42:17;15.60;;;12.30;;
73852;SDS011;62191;51.548;5.688;2022-11-12T13:45:00;18.20;;;11.83;;
73852;SDS011;62191;51.548;5.688;2022-11-12T13:47:27;15.10;;;11.85;;
73852;SDS011;62191;51.548;5.688;2022-11-12T13:49:55;15.13;;;11.30;;
73852;SDS011;62191;51.548;5.688;2022-11-12T13:52:23;15.80;;;11.28;;
73852;SDS011;62191;51.548;5.688;2022-11-12T13:55:04;15.53;;;11.00;;
73852;SDS011;62191;51.548;5.688;2022-11-12T13:57:33;15.23;;;12.05;;
73852;SDS011;62191;51.548;5.688;2022-11-12T14:00:17;14.43;;;10.63;;
73852;SDS011;62191;51.548;5.688;2022-11-12T14:03:00;17.42;;;11.65;;
73852;SDS011;62191;51.548;5.688;2022-11-12T14:05:28;14.90;;;11.50;;
73852;SDS011;62191;51.548;5.688;2022-11-12T14:13:43;13.32;;;10.82;;
73852;SDS011;62191;51.548;5.688;2022-11-12T14:16:37;16.48;;;11.57;;
73852;SDS011;62191;51.548;5.688;2022-11-12T14:19:25;17.10;;;12.05;;
73852;SDS011;62191;51.548;5.688;2022-11-12T14:24:38;18.65;;;12.93;;
73852;SDS011;62191;51.548;5.688;2022-11-12T14:27:52;17.57;;;13.50;;
73852;SDS011;62191;51.548;5.688;2022-11-12T14:29:48;19.67;;;13.45;;
73852;SDS011;62191;51.548;5.688;2022-11-12T14:32:16;16.05;;;13.18;;
73852;SDS011;62191;51.548;5.688;2022-11-12T14:34:45;18.37;;;14.13;;
73852;SDS011;62191;51.548;5.688;2022-11-12T14:37:23;19.35;;;14.63;;
73852;SDS011;62191;51.548;5.688;2022-11-12T14:39:43;20.12;;;15.25;;
73852;SDS011;62191;51.548;5.688;2022-11-12T14:42:12;18.07;;;14.50;;
73852;SDS011;62191;51.548;5.688;2022-11-12T14:44:42;21.30;;;14.80;;
73852;SDS011;62191;51.548;5.688;2022-11-12T14:47:11;21.30;;;15.70;;
73852;SDS011;62191;51.548;5.688;2022-11-12T14:49:42;22.15;;;16.42;;
73852;SDS011;62191;51.548;5.688;2022-11-12T14:52:15;19.52;;;15.10;;
73852;SDS011;62191;51.548;5.688;2022-11-12T14:54:49;21.50;;;16.52;;
73852;SDS011;62191;51.548;5.688;2022-11-12T14:57:24;20.80;;;17.00;;
73852;SDS011;62191;51.548;5.688;2022-11-12T14:59:52;19.77;;;16.70;;
73852;SDS011;62191;51.548;5.688;2022-11-12T15:02:24;21.93;;;17.35;;
73852;SDS011;62191;51.548;5.688;2022-11-12T15:05:02;22.67;;;17.80;;
73852;SDS011;62191;51.548;5.688;2022-11-12T15:07:32;22.67;;;18.27;;
73852;SDS011;62191;51.548;5.688;2022-11-12T15:10:26;24.40;;;19.90;;
73852;SDS011;62191;51.548;5.688;2022-11-12T15:12:31;22.93;;;19.50;;
73852;SDS011;62191;51.548;5.688;2022-11-12T15:15:18;25.62;;;20.45;;
73852;SDS011;62191;51.548;5.688;2022-11-12T15:18:00;24.07;;;18.57;;
73852;SDS011;62191;51.548;5.688;2022-11-12T15:20:24;25.95;;;19.75;;
73852;SDS011;62191;51.548;5.688;2022-11-12T15:22:52;26.70;;;20.35;;
73852;SDS011;62191;51.548;5.688;2022-11-12T15:25:21;26.97;;;19.95;;
73852;SDS011;62191;51.548;5.688;2022-11-12T15:27:51;26.35;;;21.15;;
73852;SDS011;62191;51.548;5.688;2022-11-12T15:30:22;29.23;;;22.52;;
73852;SDS011;62191;51.548;5.688;2022-11-12T15:35:43;26.62;;;21.45;;
73852;SDS011;62191;51.548;5.688;2022-11-12T15:38:14;26.80;;;20.48;;
73852;SDS011;62191;51.548;5.688;2022-11-12T15:40:47;25.17;;;21.85;;
73852;SDS011;62191;51.548;5.688;2022-11-12T15:43:30;27.55;;;21.30;;
73852;SDS011;62191;51.548;5.688;2022-11-12T15:46:01;28.75;;;23.67;;
73852;SDS011;62191;51.548;5.688;2022-11-12T15:48:28;29.48;;;23.50;;
73852;SDS011;62191;51.548;5.688;2022-11-12T15:50:55;32.95;;;22.55;;
73852;SDS011;62191;51.548;5.688;2022-11-12T15:53:23;35.33;;;24.82;;